Time;durP1;ratioP1;P1;durP2;ratioP2;P2;SDS_P1;SDS_P2;PMS_P1;PMS_P2;Temp;Humidity;BMP_temperature;BMP_pressure;BME280_temperature;BME280_humidity;BME280_pressure;Samples;Min_cycle;Max_cycle;Signal;HPM_P1;HPM_P2
2023/11/23 00:00:41;;;;;;;;;;;8.00;99.90;;;;;;5042045;28;19919;-68
2023/11/23 00:03:06;;;;;;;;;;;8.00;99.90;;;;;;5047770;28;19912;-68
2023/11/23 00:05:34;;;;;;;;;;;8.00;99.90;;;;;;5045331;28;19919;-68
2023/11/23 00:08:00;;;;;;;;;;;8.10;99.90;;;;;;5043335;28;20321;-68
2023/11/23 00:10:26;;;;;;;;;;;8.00;99.90;;;;;;5041400;28;19924;-68
2023/11/23 00:12:51;;;;;;;;;;;8.10;99.90;;;;;;5046927;28;20064;-68
2023/11/23 00:15:19;;;;;;;;;;;8.10;99.90;;;;;;5043363;28;19913;-67
2023/11/23 00:17:44;;;;;;;;;;;8.00;99.90;;;;;;5044713;28;20295;-68
2023/11/23 00:20:10;;;;;;;;;;;8.00;99.90;;;;;;5044937;28;19909;-68
2023/11/23 00:22:36;;;;;;;;;;;8.10;99.90;;;;;;5044550;28;19920;-68
2023/11/23 00:25:03;;;;;;;;;;;8.20;99.90;;;;;;5044141;28;21477;-68
2023/11/23 00:27:29;;;;;;;;;;;8.20;99.90;;;;;;5042172;28;19999;-68
2023/11/23 00:29:54;;;;;;;;;;;8.20;99.90;;;;;;5045615;28;20026;-68
2023/11/23 00:32:19;;;;;;;;;;;8.20;99.90;;;;;;5044712;28;19935;-68
2023/11/23 00:34:45;;;;;;;;;;;8.10;99.90;;;;;;5047594;28;20322;-68
2023/11/23 00:37:10;;;;;;;;;;;8.20;99.90;;;;;;5026533;28;19917;-68
2023/11/23 00:39:36;;;;;;;;;;;8.20;99.90;;;;;;5046374;28;19912;-68
2023/11/23 00:42:04;;;;;;;;;;;8.20;99.90;;;;;;5045834;28;20143;-68
2023/11/23 00:44:31;;;;;;;;;;;8.10;99.90;;;;;;5043790;28;19916;-68
2023/11/23 00:46:56;;;;;;;;;;;8.10;99.90;;;;;;5044107;28;19978;-68
2023/11/23 00:49:22;;;;;;;;;;;8.20;99.90;;;;;;5002772;23;20472;-68
2023/11/23 00:51:47;;;;;;;;;;;8.10;99.90;;;;;;4982527;28;20838;-68
2023/11/23 00:54:15;;;;;;;;;;;8.20;99.90;;;;;;4984593;28;19921;-68
2023/11/23 00:56:41;;;;;;;;;;;8.20;99.90;;;;;;4987973;28;19916;-68
2023/11/23 00:59:06;;;;;;;;;;;8.20;99.90;;;;;;4984990;28;19917;-68
2023/11/23 01:01:32;;;;;;;;;;;8.20;99.90;;;;;;4986292;28;20356;-68
2023/11/23 01:03:57;;;;;;;;;;;8.20;99.90;;;;;;4982171;28;20249;-68
2023/11/23 01:06:23;;;;;;;;;;;8.20;99.90;;;;;;4984394;28;19913;-68
2023/11/23 01:08:48;;;;;;;;;;;8.20;99.90;;;;;;4988647;28;19914;-68
2023/11/23 01:11:14;;;;;;;;;;;8.20;99.90;;;;;;4981075;28;20392;-68
2023/11/23 01:13:46;;;;;;;;;;;8.10;99.90;;;;;;4986789;28;19948;-68
2023/11/23 01:16:14;;;;;;;;;;;8.10;99.90;;;;;;4986941;28;20441;-68
2023/11/23 01:18:42;;;;;;;;;;;8.20;99.90;;;;;;4989584;28;19914;-67
2023/11/23 01:21:10;;;;;;;;;;;8.10;99.90;;;;;;4990583;28;20323;-67
2023/11/23 01:23:35;;;;;;;;;;;8.20;99.90;;;;;;4990033;28;19914;-68
2023/11/23 01:26:01;;;;;;;;;;;8.20;99.90;;;;;;4989397;28;19932;-68
2023/11/23 01:28:26;;;;;;;;;;;8.20;99.90;;;;;;4989811;28;20564;-68
2023/11/23 01:30:52;;;;;;;;;;;8.20;99.90;;;;;;4987767;28;19963;-67
2023/11/23 01:33:17;;;;;;;;;;;8.20;99.90;;;;;;4991008;28;20268;-68
2023/11/23 01:35:43;;;;;;;;;;;8.30;99.90;;;;;;4989592;28;20028;-67
2023/11/23 01:38:11;;;;;;;;;;;8.20;99.90;;;;;;4988618;28;19913;-68
2023/11/23 01:40:37;;;;;;;;;;;8.30;99.90;;;;;;4987697;28;19914;-68
2023/11/23 01:43:08;;;;;;;;;;;8.20;99.90;;;;;;4989314;28;19939;-68
2023/11/23 01:45:36;;;;;;;;;;;8.20;99.90;;;;;;4989507;28;19983;-68
2023/11/23 01:48:01;;;;;;;;;;;8.20;99.90;;;;;;4987486;28;20008;-67
2023/11/23 01:50:28;;;;;;;;;;;8.20;99.90;;;;;;4988887;28;19957;-68
2023/11/23 01:52:55;;;;;;;;;;;8.20;99.90;;;;;;4987643;28;19916;-68
2023/11/23 01:55:23;;;;;;;;;;;8.30;99.90;;;;;;4988000;28;20276;-67
2023/11/23 01:57:53;;;;;;;;;;;8.40;99.90;;;;;;4988774;28;19932;-68
2023/11/23 02:00:18;;;;;;;;;;;8.40;99.90;;;;;;4987597;28;19932;-67
2023/11/23 02:02:45;;;;;;;;;;;8.30;99.90;;;;;;4988055;28;20404;-68
2023/11/23 02:05:11;;;;;;;;;;;8.30;99.90;;;;;;4987904;28;19913;-68
2023/11/23 02:07:36;;;;;;;;;;;8.40;99.90;;;;;;4991569;28;20390;-68
2023/11/23 02:10:03;;;;;;;;;;;8.40;99.90;;;;;;4988833;28;19910;-68
2023/11/23 02:12:29;;;;;;;;;;;8.30;99.90;;;;;;4986851;28;20299;-68
2023/11/23 02:14:55;;;;;;;;;;;8.30;99.90;;;;;;4989421;28;19914;-68
2023/11/23 02:17:21;;;;;;;;;;;8.30;99.90;;;;;;4988080;28;19917;-68
2023/11/23 02:19:47;;;;;;;;;;;8.40;99.90;;;;;;4987810;28;19997;-67
2023/11/23 02:22:16;;;;;;;;;;;8.40;99.90;;;;;;4989469;28;19928;-68
2023/11/23 02:24:43;;;;;;;;;;;8.30;99.90;;;;;;4982877;28;19917;-68
2023/11/23 02:27:09;;;;;;;;;;;8.30;99.90;;;;;;4986692;28;19957;-68
2023/11/23 02:29:35;;;;;;;;;;;8.30;99.90;;;;;;4988507;28;19921;-68
2023/11/23 02:32:06;;;;;;;;;;;8.30;99.90;;;;;;4984220;28;19914;-67
2023/11/23 02:34:32;;;;;;;;;;;8.30;99.90;;;;;;4990425;28;19914;-68
2023/11/23 02:36:57;;;;;;;;;;;8.20;99.90;;;;;;4987048;28;19910;-68
2023/11/23 02:39:23;;;;;;;;;;;8.30;99.90;;;;;;4986458;28;19913;-67
2023/11/23 02:41:48;;;;;;;;;;;8.40;99.90;;;;;;4991591;28;20123;-67
2023/11/23 02:44:14;;;;;;;;;;;8.30;99.90;;;;;;4987198;28;20491;-67
2023/11/23 02:46:40;;;;;;;;;;;8.30;99.90;;;;;;4985535;28;19921;-68
2023/11/23 02:49:09;;;;;;;;;;;8.30;99.90;;;;;;4989674;28;19920;-67
2023/11/23 02:51:35;;;;;;;;;;;8.40;99.90;;;;;;4987605;28;19932;-68
2023/11/23 02:54:00;;;;;;;;;;;8.40;99.90;;;;;;4988172;28;19936;-68
2023/11/23 02:56:26;;;;;;;;;;;8.40;99.90;;;;;;4989566;28;20021;-68
2023/11/23 02:58:51;;;;;;;;;;;8.40;99.90;;;;;;4989212;28;20329;-68
2023/11/23 03:01:18;;;;;;;;;;;8.50;99.90;;;;;;4988616;28;19921;-68
2023/11/23 03:03:44;;;;;;;;;;;8.50;99.90;;;;;;4984344;28;19956;-67
2023/11/23 03:06:10;;;;;;;;;;;8.50;99.90;;;;;;4986948;28;19949;-68
2023/11/23 03:08:37;;;;;;;;;;;8.50;99.90;;;;;;4987810;28;19917;-68
2023/11/23 03:11:04;;;;;;;;;;;8.60;99.90;;;;;;4987491;28;19916;-68
2023/11/23 03:13:30;;;;;;;;;;;8.60;99.90;;;;;;4987791;28;19964;-68
2023/11/23 03:15:58;;;;;;;;;;;8.60;99.90;;;;;;4971128;28;19972;-68
2023/11/23 03:18:25;;;;;;;;;;;8.60;99.90;;;;;;4983863;28;20065;-68
2023/11/23 03:20:51;;;;;;;;;;;8.60;99.90;;;;;;4984671;28;20395;-67
2023/11/23 03:23:20;;;;;;;;;;;8.70;99.90;;;;;;4988296;28;19918;-68
2023/11/23 03:25:46;;;;;;;;;;;8.60;99.90;;;;;;4989118;28;19909;-68
2023/11/23 03:28:12;;;;;;;;;;;8.50;99.90;;;;;;4989403;28;19916;-67
2023/11/23 03:30:38;;;;;;;;;;;8.60;99.90;;;;;;4984665;28;20050;-68
2023/11/23 03:33:06;;;;;;;;;;;8.60;99.90;;;;;;4987159;28;19909;-68
2023/11/23 03:35:31;;;;;;;;;;;8.70;99.90;;;;;;4983599;28;19927;-68
2023/11/23 03:37:59;;;;;;;;;;;8.70;99.90;;;;;;4986213;28;20001;-68
2023/11/23 03:40:24;;;;;;;;;;;8.70;99.90;;;;;;4988597;28;19933;-68
2023/11/23 03:42:50;;;;;;;;;;;8.70;99.90;;;;;;4990718;28;19914;-68
2023/11/23 03:45:15;;;;;;;;;;;8.70;99.90;;;;;;4983382;28;20509;-68
2023/11/23 03:47:41;;;;;;;;;;;8.70;99.90;;;;;;4987790;28;19960;-68
2023/11/23 03:50:09;;;;;;;;;;;8.70;99.90;;;;;;4986551;28;19945;-68
2023/11/23 03:52:37;;;;;;;;;;;8.70;99.90;;;;;;4984753;28;20455;-68
2023/11/23 03:55:02;;;;;;;;;;;8.80;99.90;;;;;;4985542;28;19916;-68
2023/11/23 03:57:28;;;;;;;;;;;8.70;99.90;;;;;;4988127;28;19914;-68
2023/11/23 03:59:53;;;;;;;;;;;8.80;99.90;;;;;;4984152;28;20586;-68
2023/11/23 04:02:19;;;;;;;;;;;8.80;99.90;;;;;;4985180;28;20308;-68
2023/11/23 04:04:46;;;;;;;;;;;8.80;99.90;;;;;;4986737;28;19920;-68
2023/11/23 04:07:12;;;;;;;;;;;8.80;99.90;;;;;;4986636;28;19909;-68
2023/11/23 04:09:37;;;;;;;;;;;8.80;99.90;;;;;;4987281;28;19913;-68
2023/11/23 04:12:03;;;;;;;;;;;8.80;99.90;;;;;;4983585;28;20353;-68
2023/11/23 04:14:32;;;;;;;;;;;8.80;99.90;;;;;;4986046;28;19909;-68
2023/11/23 04:16:57;;;;;;;;;;;8.80;99.90;;;;;;4987077;28;20467;-67
2023/11/23 04:19:23;;;;;;;;;;;8.80;99.90;;;;;;4985570;28;20016;-67
2023/11/23 04:21:48;;;;;;;;;;;8.80;99.90;;;;;;4985194;28;19929;-67
2023/11/23 04:24:14;;;;;;;;;;;8.80;99.90;;;;;;4986810;28;19920;-68
2023/11/23 04:26:45;;;;;;;;;;;8.80;99.90;;;;;;4987550;28;19914;-68
2023/11/23 04:29:10;;;;;;;;;;;8.80;99.90;;;;;;4984399;28;20368;-68
2023/11/23 04:31:38;;;;;;;;;;;8.80;99.90;;;;;;4986707;28;19968;-68
2023/11/23 04:34:03;;;;;;;;;;;8.90;99.90;;;;;;4986312;28;19914;-68
2023/11/23 04:36:29;;;;;;;;;;;8.90;99.90;;;;;;4986394;28;20275;-68
2023/11/23 04:38:58;;;;;;;;;;;8.90;99.90;;;;;;4987602;28;19968;-68
2023/11/23 04:41:24;;;;;;;;;;;9.00;99.90;;;;;;4988204;28;20004;-67
2023/11/23 04:43:51;;;;;;;;;;;9.00;99.90;;;;;;4981697;28;20009;-68
2023/11/23 04:46:17;;;;;;;;;;;9.00;99.90;;;;;;4986490;28;19952;-68
2023/11/23 04:48:42;;;;;;;;;;;9.00;99.90;;;;;;4984974;28;19941;-68
2023/11/23 04:51:08;;;;;;;;;;;9.10;99.90;;;;;;4984371;28;19910;-68
2023/11/23 04:53:33;;;;;;;;;;;9.10;99.90;;;;;;4987480;28;19918;-68
2023/11/23 04:55:59;;;;;;;;;;;9.10;99.90;;;;;;4988010;28;20008;-68
2023/11/23 04:58:26;;;;;;;;;;;9.10;99.90;;;;;;4984242;28;19914;-68
2023/11/23 05:00:51;;;;;;;;;;;9.10;99.90;;;;;;4983146;28;20028;-68
2023/11/23 05:03:17;;;;;;;;;;;9.10;99.90;;;;;;4984779;28;19988;-68
2023/11/23 05:05:44;;;;;;;;;;;9.10;99.90;;;;;;4984333;28;19918;-67
2023/11/23 05:08:10;;;;;;;;;;;9.10;99.90;;;;;;4988589;28;19913;-68
2023/11/23 05:10:35;;;;;;;;;;;9.10;99.90;;;;;;4987812;28;19918;-68
2023/11/23 05:13:01;;;;;;;;;;;9.10;99.90;;;;;;4987097;28;19917;-68
2023/11/23 05:15:29;;;;;;;;;;;9.20;99.90;;;;;;4983064;28;20297;-68
2023/11/23 05:17:57;;;;;;;;;;;9.20;99.90;;;;;;4982639;28;19960;-68
2023/11/23 05:20:27;;;;;;;;;;;9.20;99.90;;;;;;4983417;28;19921;-67
2023/11/23 05:22:52;;;;;;;;;;;9.20;99.90;;;;;;4987353;28;19921;-67
2023/11/23 05:25:20;;;;;;;;;;;9.20;99.90;;;;;;4985417;28;19910;-68
2023/11/23 05:27:46;;;;;;;;;;;9.20;99.90;;;;;;4987576;28;20492;-67
2023/11/23 05:30:11;;;;;;;;;;;9.30;99.90;;;;;;4984032;28;19910;-67
2023/11/23 05:32:37;;;;;;;;;;;9.30;99.90;;;;;;4984376;28;19921;-68
2023/11/23 05:35:03;;;;;;;;;;;9.30;99.90;;;;;;4985820;28;20154;-67
2023/11/23 05:37:28;;;;;;;;;;;9.30;99.90;;;;;;4987854;28;20004;-67
2023/11/23 05:39:56;;;;;;;;;;;9.30;99.90;;;;;;4981653;28;20024;-68
2023/11/23 05:42:26;;;;;;;;;;;9.40;99.90;;;;;;4983216;28;19917;-68
2023/11/23 05:44:51;;;;;;;;;;;9.40;99.90;;;;;;4988040;28;20322;-67
2023/11/23 05:47:17;;;;;;;;;;;9.40;99.90;;;;;;4985061;28;19913;-68
2023/11/23 05:49:42;;;;;;;;;;;9.40;99.90;;;;;;4982390;28;20000;-68
2023/11/23 05:52:09;;;;;;;;;;;9.50;99.90;;;;;;4985486;28;19909;-67
2023/11/23 05:54:34;;;;;;;;;;;9.50;99.90;;;;;;4982974;28;19920;-68
2023/11/23 05:56:59;;;;;;;;;;;9.50;99.90;;;;;;4984873;28;19913;-68
2023/11/23 05:59:25;;;;;;;;;;;9.50;99.90;;;;;;4988215;28;19920;-68
2023/11/23 06:01:50;;;;;;;;;;;9.50;99.90;;;;;;4987868;28;20055;-68
2023/11/23 06:04:17;;;;;;;;;;;9.50;99.90;;;;;;4988294;28;20383;-67
2023/11/23 06:06:42;;;;;;;;;;;9.50;99.90;;;;;;4991380;28;19910;-68
2023/11/23 06:09:13;;;;;;;;;;;9.50;99.90;;;;;;4989701;28;20402;-68
2023/11/23 06:11:41;;;;;;;;;;;9.50;99.90;;;;;;4984493;28;19914;-68
2023/11/23 06:14:07;;;;;;;;;;;9.60;99.90;;;;;;4986050;28;19940;-67
2023/11/23 06:16:33;;;;;;;;;;;9.60;99.90;;;;;;4970075;28;19943;-68
2023/11/23 06:18:58;;;;;;;;;;;9.60;99.90;;;;;;4990788;28;19910;-67
2023/11/23 06:21:24;;;;;;;;;;;9.60;99.90;;;;;;4990425;28;19918;-68
2023/11/23 06:23:51;;;;;;;;;;;9.60;99.90;;;;;;4988865;28;20399;-67
2023/11/23 06:26:20;;;;;;;;;;;9.70;99.90;;;;;;4985931;28;19914;-68
2023/11/23 06:28:46;;;;;;;;;;;9.70;99.90;;;;;;4982113;28;19940;-68
2023/11/23 06:31:11;;;;;;;;;;;9.70;99.90;;;;;;4985499;28;20348;-68
2023/11/23 06:33:39;;;;;;;;;;;9.70;99.90;;;;;;4986559;28;19914;-68
2023/11/23 06:36:07;;;;;;;;;;;9.80;99.90;;;;;;4987087;28;19914;-68
2023/11/23 06:38:33;;;;;;;;;;;9.70;99.90;;;;;;4988589;28;19924;-68
2023/11/23 06:40:59;;;;;;;;;;;9.80;99.90;;;;;;4985269;28;19917;-68
2023/11/23 06:43:24;;;;;;;;;;;9.80;99.90;;;;;;4990599;28;20268;-68
2023/11/23 06:45:50;;;;;;;;;;;9.80;99.90;;;;;;4987066;28;19918;-68
2023/11/23 06:48:15;;;;;;;;;;;9.70;99.90;;;;;;5004292;23;20431;-68
2023/11/23 06:50:41;;;;;;;;;;;9.70;99.90;;;;;;5008616;28;19914;-68
2023/11/23 06:53:06;;;;;;;;;;;9.70;99.90;;;;;;5009022;28;19913;-68
2023/11/23 06:55:32;;;;;;;;;;;9.80;99.90;;;;;;5004860;28;20621;-68
2023/11/23 06:57:58;;;;;;;;;;;9.80;99.90;;;;;;5004707;28;19909;-68
2023/11/23 07:00:23;;;;;;;;;;;9.80;99.90;;;;;;5004864;28;19925;-68
2023/11/23 07:02:50;;;;;;;;;;;9.80;99.90;;;;;;5012048;23;19948;-71
2023/11/23 07:05:21;;;;;;;;;;;9.80;99.90;;;;;;4984682;28;19914;-71
2023/11/23 07:07:47;;;;;;;;;;;9.80;99.90;;;;;;4989016;28;19992;-70
2023/11/23 07:10:13;;;;;;;;;;;9.80;99.90;;;;;;4988185;28;20454;-71
2023/11/23 07:12:39;;;;;;;;;;;9.80;99.90;;;;;;4989464;28;20004;-71
2023/11/23 07:15:05;;;;;;;;;;;9.80;99.90;;;;;;4988144;28;19914;-71
2023/11/23 07:17:31;;;;;;;;;;;9.80;99.90;;;;;;4988542;28;19980;-71
2023/11/23 07:19:56;;;;;;;;;;;9.80;99.90;;;;;;4987809;28;19913;-71
2023/11/23 07:22:24;;;;;;;;;;;9.90;99.90;;;;;;4989911;28;19925;-70
2023/11/23 07:24:50;;;;;;;;;;;9.90;99.90;;;;;;4988449;28;19936;-71
2023/11/23 07:27:16;;;;;;;;;;;10.00;99.90;;;;;;4985372;28;19917;-71
2023/11/23 07:29:41;;;;;;;;;;;9.90;99.90;;;;;;4985099;28;19920;-71
2023/11/23 07:32:09;;;;;;;;;;;10.00;99.90;;;;;;4983292;28;19917;-71
2023/11/23 07:34:37;;;;;;;;;;;10.00;99.90;;;;;;4987549;28;20028;-71
2023/11/23 07:37:02;;;;;;;;;;;10.00;99.90;;;;;;4990305;28;20312;-71
2023/11/23 07:39:27;;;;;;;;;;;10.00;99.90;;;;;;4987238;28;19924;-71
2023/11/23 07:41:53;;;;;;;;;;;10.00;99.90;;;;;;4989066;28;19948;-71
2023/11/23 07:44:20;;;;;;;;;;;10.10;99.90;;;;;;4988286;28;19964;-71
2023/11/23 07:46:47;;;;;;;;;;;10.10;99.90;;;;;;4985557;28;20005;-71
2023/11/23 07:49:12;;;;;;;;;;;10.10;99.90;;;;;;4987451;28;20411;-71
2023/11/23 07:51:40;;;;;;;;;;;10.10;99.90;;;;;;4988893;28;19910;-71
2023/11/23 07:54:06;;;;;;;;;;;10.20;99.90;;;;;;4988139;28;20372;-70
2023/11/23 07:56:31;;;;;;;;;;;10.20;99.90;;;;;;4988188;28;20131;-71
2023/11/23 07:58:58;;;;;;;;;;;10.20;99.90;;;;;;4988788;28;19952;-71
2023/11/23 08:01:24;;;;;;;;;;;10.30;99.90;;;;;;4986977;28;19949;-71
2023/11/23 08:03:49;;;;;;;;;;;10.30;99.90;;;;;;4987961;28;20566;-71
2023/11/23 08:06:15;;;;;;;;;;;10.30;99.90;;;;;;4988553;28;19961;-71
2023/11/23 08:08:40;;;;;;;;;;;10.30;99.90;;;;;;4986864;28;19940;-70
2023/11/23 08:11:09;;;;;;;;;;;10.40;99.90;;;;;;4987992;28;20037;-71
2023/11/23 08:13:35;;;;;;;;;;;10.40;99.90;;;;;;4988646;28;20001;-71
2023/11/23 08:16:02;;;;;;;;;;;10.50;99.90;;;;;;4988009;28;20009;-71
2023/11/23 08:18:28;;;;;;;;;;;10.40;99.90;;;;;;4985702;28;19992;-70
2023/11/23 08:20:53;;;;;;;;;;;10.50;99.90;;;;;;4985557;28;20118;-71
2023/11/23 08:23:19;;;;;;;;;;;10.50;99.90;;;;;;4986411;28;19909;-71
2023/11/23 08:25:44;;;;;;;;;;;10.50;99.90;;;;;;4989205;28;19914;-71
2023/11/23 08:28:10;;;;;;;;;;;10.50;99.90;;;;;;4982810;28;20319;-71
2023/11/23 08:30:35;;;;;;;;;;;10.60;99.90;;;;;;4988613;28;19917;-71
2023/11/23 08:33:04;;;;;;;;;;;10.70;99.90;;;;;;4984404;28;19910;-71
2023/11/23 08:35:32;;;;;;;;;;;10.70;99.90;;;;;;4988969;28;19989;-71
2023/11/23 08:38:00;;;;;;;;;;;10.70;99.90;;;;;;4973110;28;19913;-71
2023/11/23 08:40:26;;;;;;;;;;;10.80;99.90;;;;;;4985675;28;20387;-71
2023/11/23 08:42:52;;;;;;;;;;;10.70;99.90;;;;;;4986496;28;19914;-71
2023/11/23 08:45:18;;;;;;;;;;;10.80;99.90;;;;;;4970931;28;19917;-71
2023/11/23 08:47:43;;;;;;;;;;;10.80;99.90;;;;;;4985736;28;19910;-71
2023/11/23 08:50:09;;;;;;;;;;;10.90;99.90;;;;;;4987645;28;20803;-71
2023/11/23 08:52:35;;;;;;;;;;;10.90;99.90;;;;;;4986416;28;19914;-71
2023/11/23 08:55:03;;;;;;;;;;;10.80;99.90;;;;;;4986186;28;19910;-73
2023/11/23 08:57:28;;;;;;;;;;;10.90;99.90;;;;;;4986402;28;19910;-71
2023/11/23 08:59:54;;;;;;;;;;;10.90;99.90;;;;;;4984911;28;19914;-71
2023/11/23 09:02:19;;;;;;;;;;;10.90;99.90;;;;;;4984922;28;19917;-71
2023/11/23 09:04:45;;;;;;;;;;;10.90;99.90;;;;;;4971158;28;20372;-72
2023/11/23 09:07:10;;;;;;;;;;;10.90;99.90;;;;;;4985598;28;19917;-71
2023/11/23 09:09:36;;;;;;;;;;;11.00;99.90;;;;;;4986145;28;19914;-71
2023/11/23 09:12:01;;;;;;;;;;;11.00;99.90;;;;;;4987557;28;19961;-71
2023/11/23 09:14:27;;;;;;;;;;;11.00;99.90;;;;;;4986905;28;19909;-71
2023/11/23 09:16:53;;;;;;;;;;;11.00;99.90;;;;;;4986820;28;19910;-71
2023/11/23 09:19:18;;;;;;;;;;;11.00;99.90;;;;;;4988293;28;19980;-71
2023/11/23 09:21:46;;;;;;;;;;;11.10;99.90;;;;;;4985570;28;19917;-71
2023/11/23 09:24:12;;;;;;;;;;;11.00;99.90;;;;;;4987820;28;19910;-71
2023/11/23 09:26:38;;;;;;;;;;;11.10;99.90;;;;;;4989737;28;20382;-71
2023/11/23 09:29:05;;;;;;;;;;;11.10;99.90;;;;;;4984629;28;20044;-71
2023/11/23 09:31:32;;;;;;;;;;;11.10;99.90;;;;;;4986659;28;19913;-71
2023/11/23 09:33:57;;;;;;;;;;;11.20;99.90;;;;;;4989385;28;19920;-71
2023/11/23 09:36:23;;;;;;;;;;;11.10;99.90;;;;;;4992254;28;19910;-71
2023/11/23 09:38:49;;;;;;;;;;;11.10;99.90;;;;;;4990076;28;20366;-71
2023/11/23 09:41:20;;;;;;;;;;;11.10;99.90;;;;;;4990806;28;19917;-71
2023/11/23 09:43:47;;;;;;;;;;;11.10;99.90;;;;;;4990460;28;20308;-71
2023/11/23 09:46:12;;;;;;;;;;;11.20;99.90;;;;;;4989078;28;19913;-71
2023/11/23 09:48:39;;;;;;;;;;;11.20;99.90;;;;;;4989244;28;19916;-71
2023/11/23 09:51:09;;;;;;;;;;;11.10;99.90;;;;;;4992467;28;19918;-71
2023/11/23 09:53:35;;;;;;;;;;;11.10;99.90;;;;;;4988924;28;19910;-71
2023/11/23 09:56:01;;;;;;;;;;;11.20;99.90;;;;;;4989630;28;19917;-71
2023/11/23 09:58:27;;;;;;;;;;;11.20;99.90;;;;;;4987618;28;19933;-71
2023/11/23 10:00:52;;;;;;;;;;;11.20;99.90;;;;;;4990478;28;19913;-71
2023/11/23 10:03:19;;;;;;;;;;;11.20;99.90;;;;;;4988234;28;19972;-71
2023/11/23 10:05:47;;;;;;;;;;;11.20;99.90;;;;;;4988457;28;20056;-71
2023/11/23 10:08:12;;;;;;;;;;;11.20;99.90;;;;;;4991447;28;19913;-71
2023/11/23 10:10:38;;;;;;;;;;;11.20;99.90;;;;;;4991124;28;19963;-71
2023/11/23 10:13:05;;;;;;;;;;;11.20;99.90;;;;;;4992093;28;20288;-71
2023/11/23 10:15:31;;;;;;;;;;;11.20;99.90;;;;;;4990029;28;19914;-71
2023/11/23 10:17:57;;;;;;;;;;;11.30;99.90;;;;;;4987825;28;20029;-71
2023/11/23 10:20:22;;;;;;;;;;;11.30;99.90;;;;;;4992800;28;19945;-71
2023/11/23 10:22:48;;;;;;;;;;;11.30;99.90;;;;;;4990818;28;19921;-71
2023/11/23 10:25:34;;;;;;;;;;;11.30;99.90;;;;;;4986866;28;19924;-71
2023/11/23 10:28:00;;;;;;;;;;;11.30;99.90;;;;;;4991617;28;19993;-71
2023/11/23 10:30:26;;;;;;;;;;;11.30;99.90;;;;;;4986222;28;20000;-71
2023/11/23 10:32:57;;;;;;;;;;;11.30;99.90;;;;;;4990214;28;19921;-71
2023/11/23 10:35:24;;;;;;;;;;;11.30;99.90;;;;;;4987378;28;19996;-71
2023/11/23 10:37:53;;;;;;;;;;;11.30;99.90;;;;;;4987692;28;19914;-71
2023/11/23 10:40:20;;;;;;;;;;;11.30;99.90;;;;;;4990092;28;20476;-71
2023/11/23 10:42:51;;;;;;;;;;;11.40;99.90;;;;;;4991278;28;19920;-71
2023/11/23 10:45:20;;;;;;;;;;;11.40;99.90;;;;;;4989311;28;19913;-71
2023/11/23 10:47:51;;;;;;;;;;;11.40;99.90;;;;;;4987842;28;19920;-71
2023/11/23 10:50:20;;;;;;;;;;;11.50;99.90;;;;;;4990776;28;20530;-71
2023/11/23 10:52:46;;;;;;;;;;;11.40;99.90;;;;;;4973480;28;19925;-71
2023/11/23 10:55:11;;;;;;;;;;;11.40;99.90;;;;;;4988400;28;20603;-71
2023/11/23 10:57:52;;;;;;;;;;;11.40;99.90;;;;;;4990421;28;20228;-71
2023/11/23 11:00:22;;;;;;;;;;;11.50;99.90;;;;;;4989551;28;19910;-71
2023/11/23 11:02:48;;;;;;;;;;;11.50;99.90;;;;;;4985953;28;20372;-71
2023/11/23 11:05:23;;;;;;;;;;;11.50;99.90;;;;;;4989352;28;19918;-71
2023/11/23 11:07:53;;;;;;;;;;;11.50;99.90;;;;;;4989525;28;20008;-71
2023/11/23 11:10:19;;;;;;;;;;;11.50;99.90;;;;;;4986615;28;20000;-71
2023/11/23 11:12:46;;;;;;;;;;;11.50;99.90;;;;;;4989582;28;19963;-71
2023/11/23 11:15:15;;;;;;;;;;;11.60;99.90;;;;;;4978581;28;19910;-71
2023/11/23 11:17:40;;;;;;;;;;;11.60;99.90;;;;;;4981348;28;20364;-71
2023/11/23 11:20:10;;;;;;;;;;;11.60;99.90;;;;;;4984919;28;19937;-71
2023/11/23 11:22:35;;;;;;;;;;;11.60;99.90;;;;;;4986516;28;19925;-71
2023/11/23 11:25:03;;;;;;;;;;;11.70;99.90;;;;;;4987788;28;19909;-71
2023/11/23 11:27:31;;;;;;;;;;;11.60;99.90;;;;;;4989694;28;20372;-71
2023/11/23 11:29:58;;;;;;;;;;;11.70;99.90;;;;;;4988818;28;19917;-71
2023/11/23 11:32:33;;;;;;;;;;;11.70;99.90;;;;;;4986940;28;19920;-71
2023/11/23 11:35:02;;;;;;;;;;;11.70;99.90;;;;;;4984748;28;19909;-71
2023/11/23 11:37:30;;;;;;;;;;;11.70;99.90;;;;;;4985394;28;20245;-71
2023/11/23 11:39:55;;;;;;;;;;;11.70;99.90;;;;;;4986776;28;20330;-71
2023/11/23 11:42:21;;;;;;;;;;;11.70;99.90;;;;;;4987371;28;19918;-71
2023/11/23 11:44:46;;;;;;;;;;;11.70;99.90;;;;;;4982546;28;19917;-71
2023/11/23 11:47:12;;;;;;;;;;;11.70;99.90;;;;;;4988476;28;20391;-71
2023/11/23 11:49:37;;;;;;;;;;;11.70;99.90;;;;;;4986366;28;19952;-71
2023/11/23 11:52:06;;;;;;;;;;;11.70;99.90;;;;;;4986689;28;19947;-71
2023/11/23 11:54:31;;;;;;;;;;;11.80;99.90;;;;;;4986425;28;19916;-71
2023/11/23 11:56:57;;;;;;;;;;;11.70;99.90;;;;;;4987276;28;19910;-71
2023/11/23 11:59:24;;;;;;;;;;;11.70;99.90;;;;;;4983262;28;20001;-71
2023/11/23 12:01:52;;;;;;;;;;;11.80;99.90;;;;;;4980686;28;19954;-71
2023/11/23 12:04:21;;;;;;;;;;;11.80;99.90;;;;;;4971644;28;19952;-71
2023/11/23 12:06:50;;;;;;;;;;;11.80;99.90;;;;;;4987725;28;19910;-71
2023/11/23 12:09:19;;;;;;;;;;;11.80;99.90;;;;;;4984920;28;19914;-71
2023/11/23 12:11:46;;;;;;;;;;;11.80;99.90;;;;;;4985861;28;20328;-71
2023/11/23 12:14:12;;;;;;;;;;;11.80;99.90;;;;;;4986638;28;19917;-71
2023/11/23 12:16:38;;;;;;;;;;;11.80;99.90;;;;;;4987067;28;20520;-71
2023/11/23 12:19:16;;;;;;;;;;;11.80;99.90;;;;;;4984765;28;19910;-71
2023/11/23 12:21:52;;;;;;;;;;;11.80;99.90;;;;;;4987529;28;20360;-71
2023/11/23 12:24:18;;;;;;;;;;;11.80;99.90;;;;;;4981362;28;19916;-71
2023/11/23 12:26:48;;;;;;;;;;;11.80;99.90;;;;;;4984710;28;20410;-71
2023/11/23 12:29:29;;;;;;;;;;;11.80;99.90;;;;;;4987846;28;19910;-71
2023/11/23 12:31:58;;;;;;;;;;;11.80;99.90;;;;;;4984659;28;19910;-71
2023/11/23 12:34:24;;;;;;;;;;;11.80;99.90;;;;;;4978046;28;20017;-71
2023/11/23 12:36:50;;;;;;;;;;;11.80;99.90;;;;;;4978940;28;20075;-71
2023/11/23 12:39:15;;;;;;;;;;;11.80;99.90;;;;;;4986079;28;19933;-71
2023/11/23 12:41:41;;;;;;;;;;;11.80;99.90;;;;;;4983448;28;20007;-71
2023/11/23 12:44:09;;;;;;;;;;;11.90;99.90;;;;;;4985893;28;19909;-71
2023/11/23 12:46:34;;;;;;;;;;;11.90;99.90;;;;;;4983258;28;19956;-72
2023/11/23 12:49:01;;;;;;;;;;;11.90;99.90;;;;;;4999417;23;19985;-71
2023/11/23 12:51:27;;;;;;;;;;;11.90;99.90;;;;;;4997535;28;19920;-71
2023/11/23 12:53:53;;;;;;;;;;;11.90;99.90;;;;;;5001672;28;19909;-71
2023/11/23 12:56:18;;;;;;;;;;;11.90;99.90;;;;;;5006374;28;19910;-71
2023/11/23 12:58:44;;;;;;;;;;;11.90;99.90;;;;;;5007083;28;19968;-71
2023/11/23 13:01:09;;;;;;;;;;;11.90;99.90;;;;;;5003095;28;20500;-71
2023/11/23 13:03:37;;;;;;;;;;;11.90;99.90;;;;;;5003362;28;19921;-71
2023/11/23 13:06:06;;;;;;;;;;;11.90;99.90;;;;;;5005648;28;19913;-71
2023/11/23 13:08:32;;;;;;;;;;;11.90;99.90;;;;;;5008340;28;19937;-71
2023/11/23 13:10:57;;;;;;;;;;;11.90;99.90;;;;;;5009173;28;19909;-71
2023/11/23 13:13:23;;;;;;;;;;;11.90;99.90;;;;;;5009538;28;19939;-71
2023/11/23 13:15:49;;;;;;;;;;;11.90;99.90;;;;;;5010172;28;19994;-71
2023/11/23 13:18:14;;;;;;;;;;;11.90;99.90;;;;;;5004755;28;20004;-71
2023/11/23 13:20:41;;;;;;;;;;;12.00;99.90;;;;;;5003070;28;19917;-71
2023/11/23 13:23:09;;;;;;;;;;;11.90;99.90;;;;;;5009263;28;19967;-71
2023/11/23 13:25:39;;;;;;;;;;;11.90;99.90;;;;;;5002413;28;20402;-71
2023/11/23 13:28:04;;;;;;;;;;;11.90;99.90;;;;;;5007990;28;19967;-71
2023/11/23 13:30:30;;;;;;;;;;;11.90;99.90;;;;;;5006910;28;19917;-71
2023/11/23 13:32:59;;;;;;;;;;;11.90;99.90;;;;;;5003661;28;19913;-71
2023/11/23 13:35:26;;;;;;;;;;;12.00;99.90;;;;;;4999009;28;19913;-71
2023/11/23 13:37:52;;;;;;;;;;;12.00;99.90;;;;;;5003049;28;19909;-71
2023/11/23 13:40:18;;;;;;;;;;;11.90;99.90;;;;;;5003179;28;19909;-71
2023/11/23 13:42:46;;;;;;;;;;;11.90;99.90;;;;;;5007070;28;19953;-71
2023/11/23 13:45:12;;;;;;;;;;;11.90;99.90;;;;;;5008170;28;19913;-71
2023/11/23 13:47:40;;;;;;;;;;;11.90;99.90;;;;;;5008751;28;20272;-71
2023/11/23 13:50:13;;;;;;;;;;;12.00;99.90;;;;;;5001777;28;19957;-71
2023/11/23 13:52:41;;;;;;;;;;;11.90;99.90;;;;;;4987561;28;19909;-71
2023/11/23 13:55:08;;;;;;;;;;;11.90;99.90;;;;;;5000667;28;19980;-71
2023/11/23 13:57:34;;;;;;;;;;;12.00;99.90;;;;;;5007608;28;19905;-71
2023/11/23 14:00:05;;;;;;;;;;;12.00;99.90;;;;;;5009702;28;19924;-71
2023/11/23 14:02:36;;;;;;;;;;;11.90;99.90;;;;;;4992646;28;19910;-71
2023/11/23 14:05:02;;;;;;;;;;;12.00;99.90;;;;;;4995085;28;20050;-70
2023/11/23 14:07:30;;;;;;;;;;;11.90;99.90;;;;;;5003652;28;19916;-71
2023/11/23 14:09:58;;;;;;;;;;;11.90;99.90;;;;;;5009449;28;19917;-71
2023/11/23 14:12:24;;;;;;;;;;;11.90;99.90;;;;;;5009206;28;19924;-71
2023/11/23 14:14:49;;;;;;;;;;;11.90;99.90;;;;;;5009379;28;19909;-71
2023/11/23 14:17:19;;;;;;;;;;;11.90;99.90;;;;;;4992649;28;19917;-71
2023/11/23 14:19:45;;;;;;;;;;;11.90;99.90;;;;;;5012222;28;20011;-71